createdAt,value
2023-02-07T00:00:40.032Z,103360.91
2023-02-07T00:05:43.111Z,103368.56
2023-02-07T00:10:44.449Z,103367.41
2023-02-07T00:15:45.770Z,103363.06
2023-02-07T00:20:56.876Z,103352.84
2023-02-07T00:25:58.276Z,103343.66
2023-02-07T00:31:03.665Z,103358.03
2023-02-07T00:36:06.527Z,103357.94
2023-02-07T00:41:08.040Z,103351.13
2023-02-07T00:46:09.864Z,103348.34
2023-02-07T00:51:12.113Z,103360.31
2023-02-07T00:56:13.742Z,103382.28
2023-02-07T01:01:15.882Z,103361.81
2023-02-07T01:06:17.266Z,103345.78
2023-02-07T01:11:19.000Z,103339.16
2023-02-07T01:16:21.732Z,103333.00
2023-02-07T01:21:24.739Z,103333.94
2023-02-07T01:26:26.513Z,103330.59
2023-02-07T01:31:27.944Z,103340.91
2023-02-07T01:36:29.818Z,103354.56
2023-02-07T01:41:31.136Z,103353.25
2023-02-07T01:46:33.569Z,103348.63
2023-02-07T01:51:35.578Z,103335.63
2023-02-07T01:56:39.865Z,103330.34
2023-02-07T02:01:42.186Z,103324.31
2023-02-07T02:06:43.870Z,103329.69
2023-02-07T02:11:45.161Z,103314.59
2023-02-07T02:16:54.703Z,103310.56
2023-02-07T02:22:14.755Z,103298.09
2023-02-07T02:27:22.124Z,103289.84
2023-02-07T02:32:23.461Z,103289.28
2023-02-07T02:37:34.029Z,103284.22
2023-02-07T02:42:35.416Z,103284.38
2023-02-07T02:47:37.308Z,103274.81
2023-02-07T02:52:50.323Z,103274.22
2023-02-07T02:58:08.564Z,103277.69
2023-02-07T03:03:28.677Z,103281.56
2023-02-07T03:08:47.271Z,103282.56
2023-02-07T03:13:51.332Z,103281.91
2023-02-07T03:19:05.206Z,103282.25
2023-02-07T03:24:09.028Z,103288.25
2023-02-07T03:29:11.138Z,103279.75
2023-02-07T03:34:15.359Z,103278.91
2023-02-07T03:39:16.974Z,103279.88
2023-02-07T03:44:20.659Z,103281.03
2023-02-07T03:49:22.580Z,103270.81
2023-02-07T03:54:23.935Z,103275.16
2023-02-07T03:59:25.245Z,103282.91
2023-02-07T04:04:26.749Z,103274.56
2023-02-07T04:09:28.111Z,103256.88
2023-02-07T04:14:29.608Z,103249.97
2023-02-07T04:19:30.926Z,103258.81
2023-02-07T04:24:32.462Z,103275.91
2023-02-07T04:29:33.820Z,103264.31
2023-02-07T04:34:35.143Z,103275.50
2023-02-07T04:39:36.556Z,103287.25
2023-02-07T04:44:37.956Z,103288.97
2023-02-07T04:49:39.290Z,103285.66
2023-02-07T04:54:40.686Z,103288.28
2023-02-07T04:59:41.999Z,103281.63
2023-02-07T05:04:43.373Z,103275.91
2023-02-07T05:09:44.797Z,103268.94
2023-02-07T05:14:46.112Z,103258.03
2023-02-07T05:19:47.522Z,103264.13
2023-02-07T05:24:48.859Z,103270.91
2023-02-07T05:29:50.266Z,103261.00
2023-02-07T05:34:51.590Z,103273.00
2023-02-07T05:39:52.917Z,103273.78
2023-02-07T05:44:54.295Z,103278.09
2023-02-07T05:49:55.599Z,103281.69
2023-02-07T05:54:57.025Z,103278.94
2023-02-07T05:59:58.335Z,103275.50
2023-02-07T06:04:59.645Z,103276.47
2023-02-07T06:10:00.971Z,103282.53
2023-02-07T06:15:02.752Z,103298.06
2023-02-07T06:20:04.567Z,103313.56
2023-02-07T06:25:06.146Z,103319.59
2023-02-07T06:30:08.494Z,103322.75
2023-02-07T06:35:09.893Z,103330.41
2023-02-07T06:40:11.495Z,103350.13
2023-02-07T06:45:12.824Z,103359.53
2023-02-07T06:50:14.166Z,103370.75
2023-02-07T06:55:15.575Z,103373.13
2023-02-07T07:00:17.083Z,103363.03
2023-02-07T07:05:18.507Z,103387.69
2023-02-07T07:10:19.894Z,103398.66
2023-02-07T07:15:21.252Z,103404.53
2023-02-07T07:20:22.639Z,103405.31
2023-02-07T07:25:24.024Z,103409.53
2023-02-07T07:30:25.440Z,103419.63
2023-02-07T07:35:26.771Z,103423.78
2023-02-07T07:40:28.075Z,103438.81
2023-02-07T07:45:29.444Z,103445.28
2023-02-07T07:50:30.792Z,103447.72
2023-02-07T07:55:32.121Z,103438.69
2023-02-07T08:00:33.752Z,103437.59
2023-02-07T08:05:35.132Z,103439.13
2023-02-07T08:10:36.929Z,103428.25
2023-02-07T08:15:39.362Z,103432.97
2023-02-07T08:20:41.080Z,103410.56
2023-02-07T08:25:42.716Z,103414.09
2023-02-07T08:30:47.421Z,103410.69
2023-02-07T08:35:49.789Z,103405.13
2023-02-07T08:40:51.165Z,103400.47
2023-02-07T08:45:52.874Z,103397.03
2023-02-07T08:50:54.559Z,103403.91
2023-02-07T08:55:55.959Z,103404.91
2023-02-07T09:00:57.331Z,103401.63
2023-02-07T09:05:59.061Z,103405.84
2023-02-07T09:11:00.594Z,103406.34
2023-02-07T09:16:01.995Z,103391.56
2023-02-07T09:21:03.723Z,103389.09
2023-02-07T09:26:06.065Z,103387.38
2023-02-07T09:31:11.504Z,103378.16
2023-02-07T09:36:19.222Z,103374.09
2023-02-07T09:41:39.480Z,103370.94
2023-02-07T09:46:59.650Z,103367.50
2023-02-07T09:52:02.149Z,103373.75
2023-02-07T09:57:08.015Z,103369.09
2023-02-07T10:02:20.295Z,103364.84
2023-02-07T10:07:22.392Z,103366.94
2023-02-07T10:12:59.373Z,103370.31
2023-02-07T10:18:12.396Z,103374.47
2023-02-07T10:23:22.695Z,103363.44
2023-02-07T10:28:24.571Z,103377.03
2023-02-07T10:33:28.842Z,103373.88
2023-02-07T10:38:33.021Z,103378.59
2023-02-07T10:43:35.299Z,103372.44
2023-02-07T10:48:37.346Z,103378.31
2023-02-07T10:53:53.606Z,103365.19
2023-02-07T10:58:59.263Z,103360.34
2023-02-07T11:04:00.648Z,103363.16
2023-02-07T11:09:20.304Z,103355.25
2023-02-07T11:14:28.073Z,103361.75
2023-02-07T11:19:30.697Z,103361.56
2023-02-07T11:24:35.726Z,103349.56
2023-02-07T11:29:44.093Z,103342.63
2023-02-07T11:34:53.236Z,103337.06
2023-02-07T11:39:55.930Z,103335.38
2023-02-07T11:44:57.342Z,103325.25
2023-02-07T11:50:04.685Z,103315.97
2023-02-07T11:55:08.118Z,103325.97
2023-02-07T12:00:16.817Z,103332.06
2023-02-07T12:05:21.816Z,103323.13
2023-02-07T12:10:25.304Z,103315.66
2023-02-07T12:15:33.068Z,103305.00
2023-02-07T12:20:52.769Z,103303.84
2023-02-07T12:26:07.681Z,103306.28
2023-02-07T12:31:21.410Z,103305.22
2023-02-07T12:36:25.856Z,103306.66
2023-02-07T12:41:35.541Z,103291.03
2023-02-07T12:46:44.061Z,103292.25
2023-02-07T12:51:53.879Z,103288.06
2023-02-07T12:57:04.393Z,103282.97
2023-02-07T13:02:32.371Z,103274.19
2023-02-07T13:07:56.697Z,103261.75
2023-02-07T13:13:17.685Z,103260.28
2023-02-07T13:18:25.731Z,103256.50
2023-02-07T13:23:31.436Z,103255.63
2023-02-07T13:28:53.431Z,103253.88
2023-02-07T13:33:54.761Z,103242.94
2023-02-07T13:38:56.091Z,103242.84
2023-02-07T13:44:10.467Z,103237.91
2023-02-07T13:49:27.195Z,103253.66
2023-02-07T13:54:29.275Z,103263.47
2023-02-07T13:59:41.262Z,103250.97
2023-02-07T14:04:48.236Z,103243.63
2023-02-07T14:09:50.031Z,103247.72
2023-02-07T14:15:02.240Z,103250.31
2023-02-07T14:20:05.334Z,103253.94
2023-02-07T14:25:07.103Z,103261.97
2023-02-07T14:30:16.720Z,103252.69
2023-02-07T14:35:18.031Z,103249.97
2023-02-07T14:40:19.404Z,103253.69
2023-02-07T14:45:21.762Z,103245.06
2023-02-07T14:50:28.003Z,103235.00
2023-02-07T14:55:47.618Z,103236.84
2023-02-07T15:00:50.189Z,103229.41
2023-02-07T15:05:53.341Z,103228.63
2023-02-07T15:10:56.720Z,103230.88
2023-02-07T15:16:27.375Z,103236.06
2023-02-07T15:21:28.774Z,103243.28
2023-02-07T15:26:30.173Z,103250.38
2023-02-07T15:31:37.666Z,103242.31
2023-02-07T15:36:40.541Z,103242.72
2023-02-07T15:41:43.889Z,103233.09
2023-02-07T15:46:46.365Z,103242.03
2023-02-07T15:51:49.974Z,103248.13
2023-02-07T15:56:56.616Z,103252.19
2023-02-07T16:01:59.814Z,103257.22
2023-02-07T16:07:01.245Z,103262.63
2023-02-07T16:12:21.082Z,103262.78
2023-02-07T16:17:24.165Z,103261.97
2023-02-07T16:22:27.701Z,103259.81
2023-02-07T16:27:31.835Z,103257.00
2023-02-07T16:32:34.012Z,103264.72
2023-02-07T16:37:35.340Z,103271.22
2023-02-07T16:42:37.049Z,103272.97
2023-02-07T16:47:38.349Z,103266.50
2023-02-07T16:52:39.704Z,103267.78
2023-02-07T16:57:42.027Z,103268.19
2023-02-07T17:02:43.837Z,103274.78
2023-02-07T17:07:45.218Z,103290.47
2023-02-07T17:12:46.543Z,103291.63
2023-02-07T17:17:48.358Z,103301.19
2023-02-07T17:22:50.438Z,103297.88
2023-02-07T17:27:51.849Z,103302.13
2023-02-07T17:32:54.154Z,103309.59
2023-02-07T17:37:56.582Z,103312.84
2023-02-07T17:42:58.452Z,103321.47
2023-02-07T17:47:59.900Z,103326.31
2023-02-07T17:53:01.703Z,103326.53
2023-02-07T17:58:05.805Z,103327.06
2023-02-07T18:03:07.670Z,103323.88
2023-02-07T18:08:15.463Z,103327.13
2023-02-07T18:13:16.805Z,103330.47
2023-02-07T18:18:18.121Z,103330.34
2023-02-07T18:23:19.497Z,103329.56
2023-02-07T18:28:20.890Z,103329.03
2023-02-07T18:33:22.293Z,103336.19
2023-02-07T18:38:23.652Z,103339.03
2023-02-07T18:43:25.044Z,103335.00
2023-02-07T18:48:26.340Z,103329.91
2023-02-07T18:53:27.665Z,103325.72
2023-02-07T18:58:30.830Z,103317.53
2023-02-07T19:03:32.246Z,103332.28
2023-02-07T19:08:34.183Z,103327.56
2023-02-07T19:13:35.626Z,103330.50
2023-02-07T19:18:37.020Z,103332.19
2023-02-07T19:23:39.344Z,103335.81
2023-02-07T19:28:40.715Z,103336.03
2023-02-07T19:33:42.027Z,103328.97
2023-02-07T19:38:43.359Z,103329.69
2023-02-07T19:43:44.675Z,103337.63
2023-02-07T19:48:46.299Z,103340.22
2023-02-07T19:53:50.049Z,103345.69
2023-02-07T19:58:52.847Z,103337.34
2023-02-07T20:03:55.604Z,103348.50
2023-02-07T20:08:57.807Z,103356.16
2023-02-07T20:14:03.758Z,103360.66
2023-02-07T20:19:06.757Z,103354.00
2023-02-07T20:24:08.539Z,103357.53
2023-02-07T20:29:16.493Z,103361.81
2023-02-07T20:34:18.468Z,103355.19
2023-02-07T20:39:20.890Z,103350.31
2023-02-07T20:44:23.210Z,103346.00
2023-02-07T20:49:28.877Z,103342.72
2023-02-07T20:54:30.461Z,103342.25
2023-02-07T20:59:32.811Z,103349.25
2023-02-07T21:04:36.369Z,103343.34
2023-02-07T21:09:37.705Z,103338.34
2023-02-07T21:14:39.804Z,103330.69
2023-02-07T21:19:41.195Z,103333.34
2023-02-07T21:24:43.731Z,103330.22
2023-02-07T21:29:45.117Z,103326.94
2023-02-07T21:34:48.590Z,103336.34
2023-02-07T21:39:49.979Z,103338.91
2023-02-07T21:44:51.296Z,103330.38
2023-02-07T21:49:52.630Z,103333.09
2023-02-07T21:54:54.208Z,103332.31
2023-02-07T21:59:55.771Z,103329.97
2023-02-07T22:04:57.134Z,103333.53
2023-02-07T22:09:58.444Z,103330.19
2023-02-07T22:14:59.845Z,103324.41
2023-02-07T22:20:01.173Z,103322.06
2023-02-07T22:25:02.515Z,103323.91
2023-02-07T22:30:04.190Z,103324.69
2023-02-07T22:35:05.685Z,103321.22
2023-02-07T22:40:07.210Z,103324.81
2023-02-07T22:45:08.788Z,103322.28
2023-02-07T22:50:10.114Z,103330.84
2023-02-07T22:55:11.796Z,103327.53
2023-02-07T23:00:13.331Z,103317.50
2023-02-07T23:05:14.692Z,103312.47
2023-02-07T23:10:16.169Z,103315.19
2023-02-07T23:15:17.491Z,103323.03
2023-02-07T23:20:18.967Z,103324.75
2023-02-07T23:25:20.425Z,103323.25
2023-02-07T23:30:21.841Z,103314.81
2023-02-07T23:35:23.172Z,103323.38
2023-02-07T23:40:24.493Z,103329.41
2023-02-07T23:45:25.826Z,103322.88
2023-02-07T23:50:29.188Z,103323.63
2023-02-07T23:55:30.555Z,103325.41
